createdAt,value
2018-03-21T00:00:30.548Z,3.90
2018-03-21T00:03:04.965Z,3.83
2018-03-21T00:05:40.510Z,3.60
2018-03-21T00:08:16.223Z,4.00
2018-03-21T00:10:50.861Z,4.10
2018-03-21T00:13:25.549Z,3.60
2018-03-21T00:16:00.123Z,3.50
2018-03-21T00:18:34.729Z,3.50
2018-03-21T00:21:10.004Z,3.93
2018-03-21T00:23:44.910Z,3.40
2018-03-21T00:26:19.556Z,3.00
2018-03-21T00:28:54.575Z,3.70
2018-03-21T00:31:29.217Z,3.23
2018-03-21T00:34:03.906Z,3.20
2018-03-21T00:36:38.567Z,3.27
2018-03-21T00:39:13.257Z,4.07
2018-03-21T00:41:47.992Z,3.30
2018-03-21T00:44:22.613Z,3.10
2018-03-21T00:46:57.275Z,3.60
2018-03-21T00:49:32.197Z,3.40
2018-03-21T00:52:07.491Z,3.13
2018-03-21T00:54:41.912Z,3.43
2018-03-21T00:57:16.496Z,3.60
2018-03-21T00:59:51.699Z,2.90
2018-03-21T01:02:26.375Z,3.33
2018-03-21T01:05:01.779Z,2.80
2018-03-21T01:07:30.928Z,3.70
2018-03-21T01:10:05.645Z,3.37
2018-03-21T01:12:40.554Z,3.27
2018-03-21T01:15:15.182Z,3.70
2018-03-21T01:17:49.793Z,3.30
2018-03-21T01:20:24.312Z,3.10
2018-03-21T01:22:59.097Z,3.60
2018-03-21T01:25:33.798Z,3.70
2018-03-21T01:28:08.293Z,3.40
2018-03-21T01:30:43.039Z,3.57
2018-03-21T01:33:18.509Z,3.47
2018-03-21T01:35:54.112Z,3.70
2018-03-21T01:38:28.451Z,3.20
2018-03-21T01:41:02.971Z,3.50
2018-03-21T01:43:37.570Z,3.13
2018-03-21T01:46:12.155Z,3.90
2018-03-21T01:48:46.781Z,3.20
2018-03-21T01:51:21.373Z,3.37
2018-03-21T01:53:56.082Z,3.53
2018-03-21T01:56:30.757Z,3.00
2018-03-21T01:59:05.534Z,3.10
2018-03-21T02:01:40.046Z,3.80
2018-03-21T02:04:14.647Z,4.50
2018-03-21T02:06:49.503Z,4.00
2018-03-21T02:09:24.208Z,3.80
2018-03-21T02:11:58.868Z,3.70
2018-03-21T02:14:33.596Z,4.43
2018-03-21T02:17:08.311Z,4.70
2018-03-21T02:19:42.841Z,4.50
2018-03-21T02:22:17.420Z,4.50
2018-03-21T02:24:51.970Z,4.47
2018-03-21T02:27:21.686Z,4.30
2018-03-21T02:29:56.229Z,4.60
2018-03-21T02:32:30.826Z,7.00
2018-03-21T02:35:06.051Z,4.80
2018-03-21T02:37:41.299Z,4.67
2018-03-21T02:40:15.936Z,4.77
2018-03-21T02:42:50.482Z,4.50
2018-03-21T02:45:25.004Z,4.70
2018-03-21T02:47:59.889Z,5.00
2018-03-21T02:50:34.576Z,4.53
2018-03-21T02:53:10.084Z,5.00
2018-03-21T02:55:45.567Z,4.73
2018-03-21T02:58:20.392Z,5.27
2018-03-21T03:00:55.896Z,4.87
2018-03-21T03:03:30.396Z,4.83
2018-03-21T03:06:05.414Z,4.93
2018-03-21T03:08:41.029Z,4.80
2018-03-21T03:11:16.542Z,4.60
2018-03-21T03:13:51.984Z,5.10
2018-03-21T03:16:26.677Z,4.30
2018-03-21T03:19:02.067Z,5.10
2018-03-21T03:21:30.944Z,4.50
2018-03-21T03:24:05.585Z,5.40
2018-03-21T03:26:40.350Z,4.90
2018-03-21T03:29:15.077Z,5.20
2018-03-21T03:31:49.612Z,5.30
2018-03-21T03:34:24.208Z,5.70
2018-03-21T03:36:59.429Z,5.23
2018-03-21T03:39:34.064Z,4.90
2018-03-21T03:42:08.810Z,4.90
2018-03-21T03:44:43.510Z,5.10
2018-03-21T03:47:18.337Z,4.40
2018-03-21T03:49:47.231Z,4.80
2018-03-21T03:52:22.503Z,5.30
2018-03-21T03:54:57.176Z,4.63
2018-03-21T03:57:31.809Z,4.17
2018-03-21T04:00:06.463Z,4.70
2018-03-21T04:02:36.443Z,4.67
2018-03-21T04:05:11.892Z,5.30
2018-03-21T04:07:46.469Z,5.10
2018-03-21T04:10:21.056Z,5.07
2018-03-21T04:12:55.669Z,4.73
2018-03-21T04:15:30.300Z,5.50
2018-03-21T04:18:04.820Z,5.17
2018-03-21T04:20:39.362Z,5.40
2018-03-21T04:23:13.883Z,6.03
2018-03-21T04:25:48.731Z,5.70
2018-03-21T04:28:23.420Z,4.93
2018-03-21T04:30:58.118Z,6.37
2018-03-21T04:33:32.688Z,5.63
2018-03-21T04:36:07.397Z,6.93
2018-03-21T04:38:42.017Z,5.87
2018-03-21T04:41:16.325Z,6.07
2018-03-21T04:43:51.114Z,6.50
2018-03-21T04:46:26.471Z,5.20
2018-03-21T04:49:01.645Z,6.30
2018-03-21T04:51:30.569Z,6.80
2018-03-21T04:54:04.860Z,6.90
2018-03-21T04:56:39.381Z,6.70
2018-03-21T04:59:13.980Z,6.10
2018-03-21T05:01:49.594Z,6.40
2018-03-21T05:04:24.125Z,7.47
2018-03-21T05:06:58.753Z,7.63
2018-03-21T05:09:33.391Z,7.63
2018-03-21T05:12:07.958Z,9.30
2018-03-21T05:14:42.572Z,9.10
2018-03-21T05:17:17.871Z,9.70
2018-03-21T05:19:52.428Z,13.27
2018-03-21T05:22:27.045Z,18.60
2018-03-21T05:25:01.576Z,16.07
2018-03-21T05:27:36.234Z,16.00
2018-03-21T05:30:10.792Z,18.30
2018-03-21T05:32:46.151Z,18.77
2018-03-21T05:35:20.814Z,26.67
2018-03-21T05:37:55.533Z,27.77
2018-03-21T05:40:24.635Z,26.30
2018-03-21T05:42:54.492Z,27.00
2018-03-21T05:45:24.061Z,28.47
2018-03-21T05:47:53.128Z,28.30
2018-03-21T05:50:23.630Z,30.80
2018-03-21T05:52:52.952Z,32.80
2018-03-21T05:55:22.799Z,32.43
2018-03-21T05:57:51.833Z,29.20
2018-03-21T06:00:21.021Z,26.60
2018-03-21T06:02:50.205Z,26.10
2018-03-21T06:05:19.861Z,28.70
2018-03-21T06:07:48.924Z,30.00
2018-03-21T06:10:18.034Z,28.77
2018-03-21T06:12:52.761Z,30.67
2018-03-21T06:15:27.311Z,25.20
2018-03-21T06:17:56.579Z,28.10
2018-03-21T06:20:32.287Z,28.73
2018-03-21T06:23:01.403Z,26.90
2018-03-21T06:25:30.454Z,28.00
2018-03-21T06:28:00.142Z,26.73
2018-03-21T06:30:29.185Z,28.03
2018-03-21T06:32:58.869Z,26.00
2018-03-21T06:35:28.053Z,26.27
2018-03-21T06:37:56.968Z,27.03
2018-03-21T06:40:32.296Z,25.40
2018-03-21T06:43:06.964Z,23.37
2018-03-21T06:45:41.572Z,21.10
2018-03-21T06:48:16.447Z,19.20
2018-03-21T06:50:50.836Z,18.57
2018-03-21T06:53:25.394Z,18.80
2018-03-21T06:56:00.158Z,16.97
2018-03-21T06:58:34.808Z,16.70
2018-03-21T07:01:09.399Z,17.23
2018-03-21T07:03:39.032Z,19.57
2018-03-21T07:06:13.599Z,18.00
2018-03-21T07:08:42.802Z,17.20
2018-03-21T07:11:17.291Z,16.50
2018-03-21T07:14:04.047Z,20.20
2018-03-21T07:16:46.600Z,17.00
2018-03-21T07:19:22.221Z,17.70
2018-03-21T07:21:56.828Z,15.90
2018-03-21T07:24:31.651Z,17.00
2018-03-21T07:27:06.394Z,15.60
2018-03-21T07:29:41.060Z,16.03
2018-03-21T07:32:09.743Z,15.43
2018-03-21T07:34:38.823Z,13.90
2018-03-21T07:37:07.828Z,14.63
2018-03-21T07:39:38.223Z,12.97
2018-03-21T07:42:07.196Z,13.20
2018-03-21T07:44:36.196Z,13.50
2018-03-21T07:47:05.082Z,13.00
2018-03-21T07:49:34.138Z,14.73
2018-03-21T07:52:08.701Z,16.13
2018-03-21T07:54:44.191Z,16.00
2018-03-21T07:57:19.010Z,14.13
2018-03-21T07:59:54.313Z,14.63
2018-03-21T08:02:28.910Z,14.10
2018-03-21T08:05:03.619Z,13.03
2018-03-21T08:07:38.386Z,13.03
2018-03-21T08:10:13.032Z,13.10
2018-03-21T08:12:47.622Z,13.40
2018-03-21T08:15:16.903Z,14.27
2018-03-21T08:17:45.857Z,12.47
2018-03-21T08:20:14.764Z,13.60
2018-03-21T08:22:49.607Z,11.87
2018-03-21T08:25:24.266Z,13.30
2018-03-21T08:27:59.074Z,14.57
2018-03-21T08:30:34.692Z,12.10
2018-03-21T08:33:09.528Z,13.17
2018-03-21T08:35:44.295Z,13.90
2018-03-21T08:38:19.624Z,13.50
2018-03-21T08:40:55.084Z,13.70
2018-03-21T08:43:23.964Z,14.30
2018-03-21T08:45:52.956Z,15.10
2018-03-21T08:48:22.121Z,14.93
2018-03-21T08:50:51.014Z,14.17
2018-03-21T08:53:20.260Z,15.40
2018-03-21T08:55:49.353Z,13.70
2018-03-21T08:58:18.596Z,15.10
2018-03-21T09:00:47.608Z,14.50
2018-03-21T09:03:17.948Z,14.25
2018-03-21T09:05:48.244Z,14.23
2018-03-21T09:08:19.311Z,15.10
2018-03-21T09:10:48.692Z,15.37
2018-03-21T09:13:17.651Z,15.37
2018-03-21T09:15:46.731Z,15.40
2018-03-21T09:18:15.987Z,15.43
2018-03-21T09:20:45.249Z,15.20
2018-03-21T09:23:20.798Z,14.10
2018-03-21T09:25:55.358Z,14.67
2018-03-21T09:28:29.914Z,11.10
2018-03-21T09:31:04.540Z,12.80
2018-03-21T09:33:39.314Z,12.93
2018-03-21T09:36:14.053Z,12.33
2018-03-21T09:38:48.627Z,12.80
2018-03-21T09:41:23.291Z,13.73
2018-03-21T09:43:58.034Z,14.00
2018-03-21T09:46:32.571Z,14.13
2018-03-21T09:49:07.192Z,12.43
2018-03-21T09:51:36.138Z,12.20
2018-03-21T09:54:10.899Z,14.70
2018-03-21T09:56:45.431Z,15.37
2018-03-21T09:59:20.087Z,13.30
2018-03-21T10:01:55.613Z,12.73
2018-03-21T10:04:30.119Z,12.57
2018-03-21T10:07:06.278Z,13.17
2018-03-21T10:09:41.632Z,13.47
2018-03-21T10:12:17.002Z,13.70
2018-03-21T10:14:51.671Z,14.27
2018-03-21T10:17:26.387Z,14.20
2018-03-21T10:20:00.964Z,15.97
2018-03-21T10:22:35.678Z,15.57
2018-03-21T10:25:10.369Z,15.47
2018-03-21T10:27:44.978Z,13.90
2018-03-21T10:30:20.743Z,16.23
2018-03-21T10:32:56.107Z,17.10
2018-03-21T10:35:30.900Z,15.43
2018-03-21T10:38:06.432Z,15.40
2018-03-21T10:40:41.098Z,15.10
2018-03-21T10:43:10.314Z,15.73
2018-03-21T10:45:44.833Z,13.93
2018-03-21T10:48:19.410Z,14.60
2018-03-21T10:50:54.135Z,13.10
2018-03-21T10:53:28.677Z,12.00
2018-03-21T10:56:03.246Z,11.97
2018-03-21T10:58:38.776Z,11.67
2018-03-21T11:01:18.893Z,10.93
2018-03-21T11:03:56.113Z,10.93
2018-03-21T11:06:31.570Z,11.93
2018-03-21T11:09:08.059Z,11.30
2018-03-21T11:11:43.000Z,11.30
2018-03-21T11:14:17.696Z,9.90
2018-03-21T11:16:52.315Z,9.87
2018-03-21T11:19:27.092Z,9.43
2018-03-21T11:22:03.892Z,8.67
2018-03-21T11:24:38.532Z,9.33
2018-03-21T11:27:13.160Z,8.40
2018-03-21T11:29:47.682Z,8.03
2018-03-21T11:32:22.524Z,8.63
2018-03-21T11:34:57.075Z,7.63
2018-03-21T11:37:31.561Z,8.47
2018-03-21T11:40:06.848Z,6.57
2018-03-21T11:42:41.471Z,6.10
2018-03-21T11:45:16.065Z,6.63
2018-03-21T11:47:51.372Z,6.20
2018-03-21T11:50:26.021Z,6.63
2018-03-21T11:53:01.307Z,6.87
2018-03-21T11:55:36.834Z,6.37
2018-03-21T11:58:11.477Z,6.40
2018-03-21T12:00:46.109Z,6.87
2018-03-21T12:03:21.427Z,5.97
2018-03-21T12:05:56.159Z,6.07
2018-03-21T12:08:30.930Z,6.20
2018-03-21T12:11:05.718Z,6.23
2018-03-21T12:13:40.467Z,7.70
2018-03-21T12:16:16.076Z,6.27
2018-03-21T12:18:50.969Z,7.20
2018-03-21T12:21:25.676Z,6.63
2018-03-21T12:24:00.488Z,8.20
2018-03-21T12:26:35.886Z,7.00
2018-03-21T12:29:10.576Z,6.77
2018-03-21T12:31:45.133Z,8.67
2018-03-21T12:34:19.658Z,8.07
2018-03-21T12:36:54.429Z,7.27
2018-03-21T12:39:28.963Z,7.43
2018-03-21T12:42:04.332Z,7.90
2018-03-21T12:44:40.073Z,7.20
2018-03-21T12:47:15.048Z,7.97
2018-03-21T12:49:50.771Z,8.13
2018-03-21T12:52:25.376Z,8.60
2018-03-21T12:54:59.946Z,8.20
2018-03-21T12:57:34.569Z,8.90
2018-03-21T13:00:10.216Z,7.40
2018-03-21T13:02:45.663Z,7.63
2018-03-21T13:05:21.090Z,8.20
2018-03-21T13:07:56.937Z,8.30
2018-03-21T13:10:31.681Z,7.37
2018-03-21T13:13:07.193Z,7.60
2018-03-21T13:15:42.707Z,7.17
2018-03-21T13:18:17.040Z,7.07
2018-03-21T13:20:51.235Z,7.57
2018-03-21T13:23:26.054Z,7.33
2018-03-21T13:26:00.937Z,7.20
2018-03-21T13:28:35.725Z,7.60
2018-03-21T13:31:10.392Z,7.10
2018-03-21T13:33:45.855Z,7.40
2018-03-21T13:36:21.240Z,8.13
2018-03-21T13:38:56.123Z,7.60
2018-03-21T13:41:30.744Z,7.80
2018-03-21T13:44:05.294Z,8.50
2018-03-21T13:46:39.952Z,8.13
2018-03-21T13:49:14.323Z,7.93
2018-03-21T13:51:48.834Z,7.47
2018-03-21T13:54:23.444Z,7.30
2018-03-21T13:56:58.151Z,7.03
2018-03-21T13:59:32.948Z,7.10
2018-03-21T14:02:08.340Z,7.70
2018-03-21T14:04:43.030Z,6.97
2018-03-21T14:07:17.697Z,7.53
2018-03-21T14:09:52.580Z,7.90
2018-03-21T14:12:28.099Z,7.73
2018-03-21T14:15:02.798Z,8.30
2018-03-21T14:17:38.019Z,7.13
2018-03-21T14:20:13.375Z,8.97
2018-03-21T14:22:48.049Z,7.70
2018-03-21T14:25:22.882Z,7.60
2018-03-21T14:27:58.399Z,7.80
2018-03-21T14:30:33.044Z,7.20
2018-03-21T14:33:07.554Z,7.33
2018-03-21T14:35:42.121Z,7.53
2018-03-21T14:38:16.874Z,7.23
2018-03-21T14:40:52.466Z,7.80
2018-03-21T14:43:27.219Z,7.63
2018-03-21T14:46:01.873Z,7.30
2018-03-21T14:48:36.398Z,8.10
2018-03-21T14:51:11.170Z,7.90
2018-03-21T14:53:46.544Z,7.40
2018-03-21T14:56:21.020Z,7.97
2018-03-21T14:58:56.586Z,6.67
2018-03-21T15:01:31.962Z,7.40
2018-03-21T15:04:06.804Z,7.93
2018-03-21T15:06:41.473Z,7.30
2018-03-21T15:09:16.359Z,7.00
2018-03-21T15:11:51.790Z,7.43
2018-03-21T15:14:26.433Z,6.80
2018-03-21T15:17:00.964Z,6.73
2018-03-21T15:19:35.614Z,6.53
2018-03-21T15:22:10.322Z,6.47
2018-03-21T15:24:45.815Z,6.47
2018-03-21T15:27:20.558Z,7.27
2018-03-21T15:29:56.017Z,7.03
2018-03-21T15:32:31.439Z,6.87
2018-03-21T15:35:06.155Z,7.00
2018-03-21T15:37:40.910Z,7.83
2018-03-21T15:40:15.614Z,7.50
2018-03-21T15:42:51.205Z,8.47
2018-03-21T15:45:25.858Z,8.20
2018-03-21T15:48:01.137Z,7.10
2018-03-21T15:50:35.690Z,6.73
2018-03-21T15:53:11.149Z,7.17
2018-03-21T15:55:45.714Z,7.27
2018-03-21T15:58:20.489Z,7.53
2018-03-21T16:00:55.028Z,7.20
2018-03-21T16:03:29.614Z,7.50
2018-03-21T16:06:06.515Z,7.27
2018-03-21T16:08:41.119Z,7.53
2018-03-21T16:11:16.519Z,7.27
2018-03-21T16:13:51.210Z,7.13
2018-03-21T16:16:26.938Z,7.47
2018-03-21T16:19:02.186Z,7.83
2018-03-21T16:21:37.587Z,6.93
2018-03-21T16:24:12.301Z,7.60
2018-03-21T16:26:46.883Z,7.50
2018-03-21T16:29:21.530Z,7.50
2018-03-21T16:31:56.067Z,6.90
2018-03-21T16:34:30.644Z,8.23
2018-03-21T16:37:05.371Z,8.47
2018-03-21T16:39:39.928Z,8.40
2018-03-21T16:42:14.449Z,8.83
2018-03-21T16:44:48.800Z,7.70
2018-03-21T16:47:23.636Z,9.80
2018-03-21T16:49:58.219Z,10.73
2018-03-21T16:52:32.731Z,9.10
2018-03-21T16:55:07.465Z,9.53
2018-03-21T16:57:42.522Z,9.43
2018-03-21T17:00:17.209Z,8.77
2018-03-21T17:02:51.988Z,8.90
2018-03-21T17:05:26.565Z,8.57
2018-03-21T17:08:01.451Z,8.67
2018-03-21T17:10:36.733Z,9.20
2018-03-21T17:13:11.512Z,8.90
2018-03-21T17:15:46.050Z,9.90
2018-03-21T17:18:20.646Z,8.97
2018-03-21T17:20:55.236Z,9.40
2018-03-21T17:23:29.881Z,9.43
2018-03-21T17:26:04.381Z,8.47
2018-03-21T17:28:39.835Z,8.70
2018-03-21T17:31:15.495Z,7.60
2018-03-21T17:33:50.199Z,7.73
2018-03-21T17:36:24.945Z,7.53
2018-03-21T17:38:59.585Z,8.17
2018-03-21T17:41:34.176Z,8.47
2018-03-21T17:44:08.685Z,8.70
2018-03-21T17:46:43.266Z,9.23
2018-03-21T17:49:18.196Z,10.83
2018-03-21T17:51:47.157Z,11.00
2018-03-21T17:54:16.061Z,11.30
2018-03-21T17:56:46.722Z,9.97
2018-03-21T17:59:16.753Z,11.47
2018-03-21T18:01:45.833Z,11.77
2018-03-21T18:04:15.207Z,11.10
2018-03-21T18:06:49.993Z,9.30
2018-03-21T18:09:24.667Z,9.30
2018-03-21T18:11:59.374Z,9.53
2018-03-21T18:14:34.736Z,9.83
2018-03-21T18:17:10.270Z,9.20
2018-03-21T18:19:45.014Z,10.30
2018-03-21T18:22:19.582Z,11.50
2018-03-21T18:24:54.776Z,11.03
2018-03-21T18:27:29.578Z,9.57
2018-03-21T18:30:03.803Z,9.43
2018-03-21T18:32:38.897Z,10.20
2018-03-21T18:35:13.545Z,9.20
2018-03-21T18:37:49.243Z,9.20
2018-03-21T18:40:24.006Z,9.20
2018-03-21T18:42:58.706Z,10.67
2018-03-21T18:45:34.066Z,9.67
2018-03-21T18:48:09.630Z,9.73
2018-03-21T18:50:44.169Z,9.30
2018-03-21T18:53:18.803Z,10.10
2018-03-21T18:55:53.490Z,10.30
2018-03-21T18:58:28.941Z,11.03
2018-03-21T19:01:03.533Z,10.43
2018-03-21T19:03:38.281Z,10.10
2018-03-21T19:06:12.953Z,11.83
2018-03-21T19:08:47.357Z,11.10
2018-03-21T19:11:22.000Z,12.67
2018-03-21T19:13:56.582Z,11.87
2018-03-21T19:16:31.288Z,12.67
2018-03-21T19:19:02.547Z,13.33
2018-03-21T19:21:38.011Z,13.27
2018-03-21T19:24:12.855Z,12.70
2018-03-21T19:26:47.488Z,12.50
2018-03-21T19:29:22.174Z,13.30
2018-03-21T19:31:56.604Z,13.97
2018-03-21T19:34:31.296Z,13.03
2018-03-21T19:37:00.589Z,14.30
2018-03-21T19:39:35.299Z,13.77
2018-03-21T19:42:10.408Z,14.50
2018-03-21T19:44:47.131Z,12.63
2018-03-21T19:47:21.734Z,13.90
2018-03-21T19:49:56.435Z,14.40
2018-03-21T19:52:31.685Z,14.37
2018-03-21T19:55:07.035Z,13.63
2018-03-21T19:57:36.232Z,13.53
2018-03-21T20:00:10.684Z,12.53
2018-03-21T20:02:46.325Z,14.03
2018-03-21T20:05:21.475Z,14.10
2018-03-21T20:07:56.073Z,13.83
2018-03-21T20:10:30.888Z,12.57
2018-03-21T20:13:05.627Z,14.00
2018-03-21T20:15:40.329Z,14.73
2018-03-21T20:18:15.697Z,13.27
2018-03-21T20:20:50.502Z,15.10
2018-03-21T20:23:26.084Z,13.33
2018-03-21T20:26:00.783Z,14.73
2018-03-21T20:28:36.155Z,13.93
2018-03-21T20:31:10.827Z,13.27
2018-03-21T20:33:46.659Z,14.30
2018-03-21T20:36:21.188Z,13.00
2018-03-21T20:38:55.946Z,13.80
2018-03-21T20:41:30.758Z,12.70
2018-03-21T20:44:04.973Z,13.03
2018-03-21T20:46:40.806Z,13.10
2018-03-21T20:49:16.323Z,13.07
2018-03-21T20:51:51.142Z,13.83
2018-03-21T20:54:25.728Z,12.50
2018-03-21T20:56:55.561Z,12.53
2018-03-21T20:59:30.211Z,13.33
2018-03-21T21:02:05.029Z,13.90
2018-03-21T21:04:40.355Z,14.03
2018-03-21T21:07:15.812Z,14.47
2018-03-21T21:09:50.496Z,14.63
2018-03-21T21:12:25.457Z,14.63
2018-03-21T21:15:00.276Z,15.27
2018-03-21T21:17:34.897Z,15.20
2018-03-21T21:20:09.421Z,14.00
2018-03-21T21:22:44.790Z,14.77
2018-03-21T21:25:20.296Z,16.07
2018-03-21T21:27:54.862Z,14.47
2018-03-21T21:30:29.443Z,14.50
2018-03-21T21:33:04.007Z,14.70
2018-03-21T21:35:38.631Z,15.43
2018-03-21T21:38:13.590Z,15.70
2018-03-21T21:40:48.167Z,14.10
2018-03-21T21:43:22.809Z,16.30
2018-03-21T21:45:57.549Z,15.40
2018-03-21T21:48:32.166Z,15.40
2018-03-21T21:51:06.736Z,15.53
2018-03-21T21:53:41.267Z,15.90
2018-03-21T21:56:15.936Z,15.20
2018-03-21T21:58:51.441Z,15.40
2018-03-21T22:01:26.213Z,15.97
2018-03-21T22:04:01.194Z,16.40
2018-03-21T22:06:35.759Z,17.73
2018-03-21T22:09:10.267Z,17.00
2018-03-21T22:11:45.191Z,17.73
2018-03-21T22:14:19.689Z,17.90
2018-03-21T22:16:54.243Z,17.97
2018-03-21T22:19:28.837Z,18.60
2018-03-21T22:22:03.508Z,18.37
2018-03-21T22:24:38.102Z,19.83
2018-03-21T22:27:12.744Z,19.93
2018-03-21T22:29:48.059Z,19.43
2018-03-21T22:32:23.385Z,18.00
2018-03-21T22:34:57.977Z,17.20
2018-03-21T22:37:32.559Z,19.40
2018-03-21T22:40:07.203Z,18.97
2018-03-21T22:42:41.725Z,19.10
2018-03-21T22:45:16.372Z,19.97
2018-03-21T22:47:50.681Z,21.20
2018-03-21T22:50:25.974Z,20.07
2018-03-21T22:53:00.696Z,20.57
2018-03-21T22:55:35.505Z,20.20
2018-03-21T22:58:06.872Z,20.63
2018-03-21T23:00:42.343Z,20.90
2018-03-21T23:03:17.255Z,19.20
2018-03-21T23:05:52.104Z,20.47
2018-03-21T23:08:26.482Z,21.90
2018-03-21T23:11:01.067Z,21.33
2018-03-21T23:13:38.291Z,21.37
2018-03-21T23:16:13.083Z,21.03
2018-03-21T23:18:48.631Z,22.10
2018-03-21T23:21:23.330Z,22.90
2018-03-21T23:23:58.752Z,21.00
2018-03-21T23:26:33.375Z,21.70
2018-03-21T23:29:07.900Z,22.40
2018-03-21T23:31:42.751Z,22.30
2018-03-21T23:34:17.533Z,22.33
2018-03-21T23:36:49.941Z,22.60
2018-03-21T23:39:24.786Z,22.27
2018-03-21T23:41:59.368Z,22.27
2018-03-21T23:44:34.978Z,20.63
2018-03-21T23:47:09.751Z,20.03
2018-03-21T23:49:44.411Z,23.00
2018-03-21T23:52:19.140Z,20.27
2018-03-21T23:54:54.509Z,21.60
2018-03-21T23:57:29.485Z,21.63
